sensor_id;sensor_type;location;lat;lon;timestamp;P1;durP1;ratioP1;P2;durP2;ratioP2
39918;SDS011;25589;51.552;13.424;2022-08-20T00:00:31;28.38;;;18.55;;
39918;SDS011;25589;51.552;13.424;2022-08-20T00:03:05;28.33;;;19.75;;
39918;SDS011;25589;51.552;13.424;2022-08-20T00:05:36;27.40;;;18.60;;
39918;SDS011;25589;51.552;13.424;2022-08-20T00:08:03;24.40;;;18.50;;
39918;SDS011;25589;51.552;13.424;2022-08-20T00:10:30;29.83;;;20.13;;
39918;SDS011;25589;51.552;13.424;2022-08-20T00:12:57;26.35;;;19.10;;
39918;SDS011;25589;51.552;13.424;2022-08-20T00:15:24;27.98;;;19.88;;
39918;SDS011;25589;51.552;13.424;2022-08-20T00:17:53;31.60;;;21.38;;
39918;SDS011;25589;51.552;13.424;2022-08-20T00:20:21;24.95;;;19.55;;
39918;SDS011;25589;51.552;13.424;2022-08-20T00:22:48;25.05;;;18.75;;
39918;SDS011;25589;51.552;13.424;2022-08-20T00:25:15;31.13;;;19.63;;
39918;SDS011;25589;51.552;13.424;2022-08-20T00:27:41;29.88;;;19.55;;
39918;SDS011;25589;51.552;13.424;2022-08-20T00:30:09;28.77;;;20.80;;
39918;SDS011;25589;51.552;13.424;2022-08-20T00:32:46;27.77;;;19.10;;
39918;SDS011;25589;51.552;13.424;2022-08-20T00:35:18;31.52;;;20.70;;
39918;SDS011;25589;51.552;13.424;2022-08-20T00:37:45;25.73;;;19.33;;
39918;SDS011;25589;51.552;13.424;2022-08-20T00:40:13;30.73;;;21.02;;
39918;SDS011;25589;51.552;13.424;2022-08-20T00:42:42;30.45;;;20.13;;
39918;SDS011;25589;51.552;13.424;2022-08-20T00:45:09;29.58;;;20.13;;
39918;SDS011;25589;51.552;13.424;2022-08-20T00:47:36;31.75;;;20.48;;
39918;SDS011;25589;51.552;13.424;2022-08-20T00:50:05;30.90;;;20.35;;
39918;SDS011;25589;51.552;13.424;2022-08-20T00:52:31;30.40;;;20.33;;
39918;SDS011;25589;51.552;13.424;2022-08-20T00:54:58;29.05;;;21.50;;
39918;SDS011;25589;51.552;13.424;2022-08-20T00:57:27;30.70;;;20.23;;
39918;SDS011;25589;51.552;13.424;2022-08-20T00:59:58;28.65;;;20.83;;
39918;SDS011;25589;51.552;13.424;2022-08-20T01:02:31;31.77;;;21.10;;
39918;SDS011;25589;51.552;13.424;2022-08-20T01:04:56;31.17;;;20.60;;
39918;SDS011;25589;51.552;13.424;2022-08-20T01:07:23;28.23;;;21.15;;
39918;SDS011;25589;51.552;13.424;2022-08-20T01:10:09;31.75;;;21.17;;
39918;SDS011;25589;51.552;13.424;2022-08-20T01:12:38;30.15;;;19.85;;
39918;SDS011;25589;51.552;13.424;2022-08-20T01:15:06;34.38;;;21.70;;
39918;SDS011;25589;51.552;13.424;2022-08-20T01:17:36;33.60;;;21.23;;
39918;SDS011;25589;51.552;13.424;2022-08-20T01:25:54;32.22;;;21.42;;
39918;SDS011;25589;51.552;13.424;2022-08-20T01:31:06;30.10;;;21.98;;
39918;SDS011;25589;51.552;13.424;2022-08-20T01:33:35;32.10;;;21.85;;
39918;SDS011;25589;51.552;13.424;2022-08-20T01:36:01;32.97;;;22.15;;
39918;SDS011;25589;51.552;13.424;2022-08-20T01:38:27;34.38;;;21.88;;
39918;SDS011;25589;51.552;13.424;2022-08-20T01:41:07;31.80;;;22.45;;
39918;SDS011;25589;51.552;13.424;2022-08-20T01:43:48;33.20;;;22.42;;
39918;SDS011;25589;51.552;13.424;2022-08-20T01:46:16;35.17;;;23.23;;
39918;SDS011;25589;51.552;13.424;2022-08-20T01:48:42;31.50;;;22.25;;
39918;SDS011;25589;51.552;13.424;2022-08-20T01:51:11;32.03;;;21.83;;
39918;SDS011;25589;51.552;13.424;2022-08-20T01:53:40;31.95;;;22.52;;
39918;SDS011;25589;51.552;13.424;2022-08-20T01:56:09;32.95;;;23.48;;
39918;SDS011;25589;51.552;13.424;2022-08-20T01:58:39;33.40;;;22.90;;
39918;SDS011;25589;51.552;13.424;2022-08-20T02:01:06;36.70;;;23.95;;
39918;SDS011;25589;51.552;13.424;2022-08-20T02:03:32;31.83;;;23.00;;
39918;SDS011;25589;51.552;13.424;2022-08-20T02:05:58;34.58;;;22.98;;
39918;SDS011;25589;51.552;13.424;2022-08-20T02:08:25;38.13;;;23.67;;
39918;SDS011;25589;51.552;13.424;2022-08-20T02:10:51;32.10;;;22.77;;
39918;SDS011;25589;51.552;13.424;2022-08-20T02:13:17;32.65;;;23.13;;
39918;SDS011;25589;51.552;13.424;2022-08-20T02:15:42;33.15;;;23.23;;
39918;SDS011;25589;51.552;13.424;2022-08-20T02:18:09;36.03;;;24.42;;
39918;SDS011;25589;51.552;13.424;2022-08-20T02:20:37;35.80;;;22.73;;
39918;SDS011;25589;51.552;13.424;2022-08-20T02:23:04;31.85;;;22.08;;
39918;SDS011;25589;51.552;13.424;2022-08-20T02:25:32;35.28;;;24.25;;
39918;SDS011;25589;51.552;13.424;2022-08-20T02:28:01;32.58;;;22.38;;
39918;SDS011;25589;51.552;13.424;2022-08-20T02:30:37;35.38;;;23.98;;
39918;SDS011;25589;51.552;13.424;2022-08-20T02:33:08;33.63;;;22.42;;
39918;SDS011;25589;51.552;13.424;2022-08-20T02:35:38;32.13;;;21.63;;
39918;SDS011;25589;51.552;13.424;2022-08-20T02:38:05;35.90;;;23.73;;
39918;SDS011;25589;51.552;13.424;2022-08-20T02:40:31;34.55;;;23.48;;
39918;SDS011;25589;51.552;13.424;2022-08-20T02:43:00;34.33;;;22.08;;
39918;SDS011;25589;51.552;13.424;2022-08-20T02:45:27;35.65;;;22.60;;
39918;SDS011;25589;51.552;13.424;2022-08-20T02:47:55;34.63;;;22.95;;
39918;SDS011;25589;51.552;13.424;2022-08-20T02:50:22;30.90;;;22.25;;
39918;SDS011;25589;51.552;13.424;2022-08-20T02:52:50;36.00;;;22.80;;
39918;SDS011;25589;51.552;13.424;2022-08-20T02:55:16;35.28;;;22.98;;
39918;SDS011;25589;51.552;13.424;2022-08-20T02:57:42;31.85;;;22.95;;
39918;SDS011;25589;51.552;13.424;2022-08-20T03:00:10;34.75;;;22.65;;
39918;SDS011;25589;51.552;13.424;2022-08-20T03:02:41;32.15;;;22.00;;
39918;SDS011;25589;51.552;13.424;2022-08-20T03:05:07;31.95;;;22.67;;
39918;SDS011;25589;51.552;13.424;2022-08-20T03:07:46;34.75;;;22.65;;
39918;SDS011;25589;51.552;13.424;2022-08-20T03:10:14;34.53;;;22.00;;
39918;SDS011;25589;51.552;13.424;2022-08-20T03:12:41;31.63;;;21.90;;
39918;SDS011;25589;51.552;13.424;2022-08-20T03:15:08;32.67;;;22.27;;
39918;SDS011;25589;51.552;13.424;2022-08-20T03:17:34;35.00;;;22.35;;
39918;SDS011;25589;51.552;13.424;2022-08-20T03:20:01;34.58;;;22.48;;
39918;SDS011;25589;51.552;13.424;2022-08-20T03:22:29;32.88;;;22.88;;
39918;SDS011;25589;51.552;13.424;2022-08-20T03:24:54;33.88;;;22.80;;
39918;SDS011;25589;51.552;13.424;2022-08-20T03:27:21;34.95;;;23.55;;
39918;SDS011;25589;51.552;13.424;2022-08-20T03:29:46;32.75;;;21.80;;
39918;SDS011;25589;51.552;13.424;2022-08-20T03:32:12;34.90;;;22.23;;
39918;SDS011;25589;51.552;13.424;2022-08-20T03:34:38;38.42;;;22.70;;
39918;SDS011;25589;51.552;13.424;2022-08-20T03:37:03;34.13;;;22.58;;
39918;SDS011;25589;51.552;13.424;2022-08-20T03:39:29;32.15;;;21.02;;
39918;SDS011;25589;51.552;13.424;2022-08-20T03:41:55;32.70;;;22.48;;
39918;SDS011;25589;51.552;13.424;2022-08-20T03:44:20;34.03;;;23.10;;
39918;SDS011;25589;51.552;13.424;2022-08-20T03:46:46;31.25;;;22.95;;
39918;SDS011;25589;51.552;13.424;2022-08-20T03:49:12;38.97;;;22.77;;
39918;SDS011;25589;51.552;13.424;2022-08-20T03:51:38;32.80;;;23.13;;
39918;SDS011;25589;51.552;13.424;2022-08-20T03:54:03;34.25;;;22.48;;
39918;SDS011;25589;51.552;13.424;2022-08-20T03:56:29;35.25;;;22.42;;
39918;SDS011;25589;51.552;13.424;2022-08-20T03:58:55;33.63;;;22.35;;
39918;SDS011;25589;51.552;13.424;2022-08-20T04:01:21;38.75;;;22.80;;
39918;SDS011;25589;51.552;13.424;2022-08-20T04:03:47;35.67;;;22.55;;
39918;SDS011;25589;51.552;13.424;2022-08-20T04:06:13;38.00;;;23.30;;
39918;SDS011;25589;51.552;13.424;2022-08-20T04:08:38;37.40;;;23.20;;
39918;SDS011;25589;51.552;13.424;2022-08-20T04:11:05;35.15;;;23.52;;
39918;SDS011;25589;51.552;13.424;2022-08-20T04:13:30;39.13;;;23.85;;
39918;SDS011;25589;51.552;13.424;2022-08-20T04:15:57;43.60;;;25.77;;
39918;SDS011;25589;51.552;13.424;2022-08-20T04:18:27;41.45;;;24.45;;
39918;SDS011;25589;51.552;13.424;2022-08-20T04:20:53;39.33;;;24.13;;
39918;SDS011;25589;51.552;13.424;2022-08-20T04:23:19;38.05;;;25.58;;
39918;SDS011;25589;51.552;13.424;2022-08-20T04:25:46;36.72;;;23.52;;
39918;SDS011;25589;51.552;13.424;2022-08-20T04:28:14;38.90;;;23.33;;
39918;SDS011;25589;51.552;13.424;2022-08-20T04:30:48;40.33;;;24.92;;
39918;SDS011;25589;51.552;13.424;2022-08-20T04:33:15;36.92;;;24.00;;
39918;SDS011;25589;51.552;13.424;2022-08-20T04:35:41;35.15;;;23.67;;
39918;SDS011;25589;51.552;13.424;2022-08-20T04:38:07;34.67;;;23.77;;
39918;SDS011;25589;51.552;13.424;2022-08-20T04:40:34;37.53;;;23.15;;
39918;SDS011;25589;51.552;13.424;2022-08-20T04:43:22;35.35;;;22.80;;
39918;SDS011;25589;51.552;13.424;2022-08-20T04:45:50;36.22;;;23.73;;
39918;SDS011;25589;51.552;13.424;2022-08-20T04:48:16;33.63;;;22.48;;
39918;SDS011;25589;51.552;13.424;2022-08-20T04:50:44;36.45;;;22.27;;
39918;SDS011;25589;51.552;13.424;2022-08-20T04:53:13;37.70;;;25.05;;
39918;SDS011;25589;51.552;13.424;2022-08-20T04:55:42;39.55;;;24.77;;
39918;SDS011;25589;51.552;13.424;2022-08-20T04:58:13;39.25;;;24.05;;
39918;SDS011;25589;51.552;13.424;2022-08-20T05:00:44;38.50;;;25.08;;
39918;SDS011;25589;51.552;13.424;2022-08-20T05:03:11;39.72;;;25.30;;
39918;SDS011;25589;51.552;13.424;2022-08-20T05:05:36;41.70;;;26.23;;
39918;SDS011;25589;51.552;13.424;2022-08-20T05:08:02;42.20;;;26.65;;
39918;SDS011;25589;51.552;13.424;2022-08-20T05:10:28;46.22;;;26.65;;
39918;SDS011;25589;51.552;13.424;2022-08-20T05:12:54;40.88;;;26.10;;
39918;SDS011;25589;51.552;13.424;2022-08-20T05:15:20;41.63;;;26.10;;
39918;SDS011;25589;51.552;13.424;2022-08-20T05:17:47;42.33;;;25.95;;
39918;SDS011;25589;51.552;13.424;2022-08-20T05:20:24;41.55;;;26.08;;
39918;SDS011;25589;51.552;13.424;2022-08-20T05:22:52;44.35;;;26.85;;
39918;SDS011;25589;51.552;13.424;2022-08-20T05:25:20;42.22;;;26.60;;
39918;SDS011;25589;51.552;13.424;2022-08-20T05:27:45;44.20;;;26.15;;
39918;SDS011;25589;51.552;13.424;2022-08-20T05:30:11;44.50;;;26.58;;
39918;SDS011;25589;51.552;13.424;2022-08-20T05:32:37;43.95;;;26.02;;
39918;SDS011;25589;51.552;13.424;2022-08-20T05:35:04;42.78;;;26.55;;
39918;SDS011;25589;51.552;13.424;2022-08-20T05:37:36;44.50;;;26.52;;
39918;SDS011;25589;51.552;13.424;2022-08-20T05:40:07;44.00;;;27.27;;
39918;SDS011;25589;51.552;13.424;2022-08-20T05:42:38;44.33;;;27.60;;
39918;SDS011;25589;51.552;13.424;2022-08-20T05:45:04;41.40;;;27.52;;
39918;SDS011;25589;51.552;13.424;2022-08-20T05:47:31;39.85;;;26.38;;
39918;SDS011;25589;51.552;13.424;2022-08-20T05:49:56;37.33;;;23.85;;
39918;SDS011;25589;51.552;13.424;2022-08-20T05:52:22;40.92;;;25.60;;
39918;SDS011;25589;51.552;13.424;2022-08-20T05:54:48;43.30;;;24.85;;
39918;SDS011;25589;51.552;13.424;2022-08-20T05:57:16;36.60;;;25.20;;
39918;SDS011;25589;51.552;13.424;2022-08-20T05:59:46;47.33;;;27.50;;
39918;SDS011;25589;51.552;13.424;2022-08-20T06:02:12;44.63;;;26.80;;
39918;SDS011;25589;51.552;13.424;2022-08-20T06:04:56;41.10;;;25.85;;
39918;SDS011;25589;51.552;13.424;2022-08-20T06:07:22;44.00;;;27.48;;
39918;SDS011;25589;51.552;13.424;2022-08-20T06:09:48;43.70;;;27.25;;
39918;SDS011;25589;51.552;13.424;2022-08-20T06:12:14;40.08;;;26.77;;
39918;SDS011;25589;51.552;13.424;2022-08-20T06:14:41;44.72;;;27.52;;
39918;SDS011;25589;51.552;13.424;2022-08-20T06:17:11;42.50;;;25.60;;
39918;SDS011;25589;51.552;13.424;2022-08-20T06:19:39;41.07;;;26.30;;
39918;SDS011;25589;51.552;13.424;2022-08-20T06:22:06;43.97;;;25.48;;
39918;SDS011;25589;51.552;13.424;2022-08-20T06:24:31;42.10;;;26.52;;
39918;SDS011;25589;51.552;13.424;2022-08-20T06:26:58;39.63;;;25.75;;
39918;SDS011;25589;51.552;13.424;2022-08-20T06:29:25;40.95;;;26.75;;
39918;SDS011;25589;51.552;13.424;2022-08-20T06:31:52;43.60;;;27.10;;
39918;SDS011;25589;51.552;13.424;2022-08-20T06:34:18;43.88;;;27.73;;
39918;SDS011;25589;51.552;13.424;2022-08-20T06:36:44;46.20;;;27.88;;
39918;SDS011;25589;51.552;13.424;2022-08-20T06:39:11;47.25;;;27.67;;
39918;SDS011;25589;51.552;13.424;2022-08-20T06:41:40;43.58;;;27.73;;
39918;SDS011;25589;51.552;13.424;2022-08-20T06:44:06;45.40;;;25.77;;
39918;SDS011;25589;51.552;13.424;2022-08-20T06:46:35;44.90;;;27.42;;
39918;SDS011;25589;51.552;13.424;2022-08-20T06:49:05;48.13;;;27.58;;
39918;SDS011;25589;51.552;13.424;2022-08-20T06:51:31;41.97;;;26.27;;
39918;SDS011;25589;51.552;13.424;2022-08-20T06:53:58;43.88;;;27.13;;
39918;SDS011;25589;51.552;13.424;2022-08-20T06:56:24;44.40;;;27.42;;
39918;SDS011;25589;51.552;13.424;2022-08-20T06:58:49;38.60;;;26.13;;
39918;SDS011;25589;51.552;13.424;2022-08-20T07:01:15;44.00;;;26.35;;
39918;SDS011;25589;51.552;13.424;2022-08-20T07:03:45;42.08;;;26.40;;
39918;SDS011;25589;51.552;13.424;2022-08-20T07:06:13;41.47;;;26.85;;
39918;SDS011;25589;51.552;13.424;2022-08-20T07:08:40;41.95;;;27.05;;
39918;SDS011;25589;51.552;13.424;2022-08-20T07:11:06;45.50;;;28.02;;
39918;SDS011;25589;51.552;13.424;2022-08-20T07:13:32;44.88;;;26.92;;
39918;SDS011;25589;51.552;13.424;2022-08-20T07:15:58;40.40;;;26.38;;
39918;SDS011;25589;51.552;13.424;2022-08-20T07:18:23;39.95;;;26.60;;
39918;SDS011;25589;51.552;13.424;2022-08-20T07:20:49;41.40;;;26.52;;
39918;SDS011;25589;51.552;13.424;2022-08-20T07:23:15;41.90;;;27.17;;
39918;SDS011;25589;51.552;13.424;2022-08-20T07:25:41;44.70;;;26.52;;
39918;SDS011;25589;51.552;13.424;2022-08-20T07:28:11;42.72;;;27.80;;
39918;SDS011;25589;51.552;13.424;2022-08-20T07:30:40;42.75;;;26.50;;
39918;SDS011;25589;51.552;13.424;2022-08-20T07:33:25;38.97;;;26.58;;
39918;SDS011;25589;51.552;13.424;2022-08-20T07:35:52;41.85;;;26.90;;
39918;SDS011;25589;51.552;13.424;2022-08-20T07:38:19;42.33;;;27.00;;
39918;SDS011;25589;51.552;13.424;2022-08-20T07:40:49;39.67;;;26.25;;
39918;SDS011;25589;51.552;13.424;2022-08-20T07:43:19;41.00;;;27.08;;
39918;SDS011;25589;51.552;13.424;2022-08-20T07:45:48;42.17;;;26.58;;
39918;SDS011;25589;51.552;13.424;2022-08-20T07:48:15;43.38;;;26.90;;
39918;SDS011;25589;51.552;13.424;2022-08-20T07:50:41;40.90;;;26.02;;
39918;SDS011;25589;51.552;13.424;2022-08-20T07:53:07;43.65;;;26.77;;
39918;SDS011;25589;51.552;13.424;2022-08-20T07:55:35;43.10;;;27.77;;
39918;SDS011;25589;51.552;13.424;2022-08-20T07:58:05;37.47;;;25.65;;
39918;SDS011;25589;51.552;13.424;2022-08-20T08:00:34;38.00;;;25.05;;
39918;SDS011;25589;51.552;13.424;2022-08-20T08:03:00;41.03;;;25.52;;
39918;SDS011;25589;51.552;13.424;2022-08-20T08:05:25;40.90;;;27.25;;
39918;SDS011;25589;51.552;13.424;2022-08-20T08:07:51;42.80;;;26.42;;
39918;SDS011;25589;51.552;13.424;2022-08-20T08:10:17;39.58;;;26.33;;
39918;SDS011;25589;51.552;13.424;2022-08-20T08:12:47;39.17;;;25.58;;
39918;SDS011;25589;51.552;13.424;2022-08-20T08:15:16;41.83;;;26.88;;
39918;SDS011;25589;51.552;13.424;2022-08-20T08:17:46;38.20;;;25.10;;
39918;SDS011;25589;51.552;13.424;2022-08-20T08:20:13;39.92;;;26.98;;
39918;SDS011;25589;51.552;13.424;2022-08-20T08:22:39;44.10;;;26.75;;
39918;SDS011;25589;51.552;13.424;2022-08-20T08:25:07;40.83;;;27.40;;
39918;SDS011;25589;51.552;13.424;2022-08-20T08:27:34;37.15;;;26.33;;
39918;SDS011;25589;51.552;13.424;2022-08-20T08:30:00;42.72;;;26.73;;
39918;SDS011;25589;51.552;13.424;2022-08-20T08:32:27;37.63;;;26.05;;
39918;SDS011;25589;51.552;13.424;2022-08-20T08:34:55;40.05;;;26.17;;
39918;SDS011;25589;51.552;13.424;2022-08-20T08:37:20;39.22;;;26.23;;
39918;SDS011;25589;51.552;13.424;2022-08-20T08:39:46;42.80;;;28.77;;
39918;SDS011;25589;51.552;13.424;2022-08-20T08:42:20;47.72;;;27.88;;
39918;SDS011;25589;51.552;13.424;2022-08-20T08:44:52;40.42;;;26.95;;
39918;SDS011;25589;51.552;13.424;2022-08-20T08:47:29;45.42;;;28.63;;
39918;SDS011;25589;51.552;13.424;2022-08-20T08:49:59;42.33;;;29.08;;
39918;SDS011;25589;51.552;13.424;2022-08-20T08:52:27;44.33;;;27.30;;
39918;SDS011;25589;51.552;13.424;2022-08-20T08:54:56;44.38;;;28.20;;
39918;SDS011;25589;51.552;13.424;2022-08-20T08:57:24;41.72;;;28.67;;
39918;SDS011;25589;51.552;13.424;2022-08-20T09:00:11;44.35;;;28.27;;
39918;SDS011;25589;51.552;13.424;2022-08-20T09:02:39;38.72;;;27.20;;
39918;SDS011;25589;51.552;13.424;2022-08-20T09:05:17;44.05;;;28.52;;
39918;SDS011;25589;51.552;13.424;2022-08-20T09:07:48;42.90;;;27.70;;
39918;SDS011;25589;51.552;13.424;2022-08-20T09:10:15;39.90;;;26.92;;
39918;SDS011;25589;51.552;13.424;2022-08-20T09:12:41;38.65;;;26.45;;
39918;SDS011;25589;51.552;13.424;2022-08-20T09:15:08;40.70;;;26.30;;
39918;SDS011;25589;51.552;13.424;2022-08-20T09:17:34;42.05;;;26.50;;
39918;SDS011;25589;51.552;13.424;2022-08-20T09:20:00;39.63;;;26.67;;
39918;SDS011;25589;51.552;13.424;2022-08-20T09:22:26;39.05;;;26.85;;
39918;SDS011;25589;51.552;13.424;2022-08-20T09:24:51;41.25;;;27.08;;
39918;SDS011;25589;51.552;13.424;2022-08-20T09:27:17;38.63;;;25.45;;
39918;SDS011;25589;51.552;13.424;2022-08-20T09:29:43;41.03;;;27.05;;
39918;SDS011;25589;51.552;13.424;2022-08-20T09:34:37;37.95;;;26.15;;
39918;SDS011;25589;51.552;13.424;2022-08-20T09:37:04;35.03;;;24.92;;
39918;SDS011;25589;51.552;13.424;2022-08-20T09:39:29;38.10;;;26.52;;
39918;SDS011;25589;51.552;13.424;2022-08-20T09:42:04;39.17;;;25.52;;
39918;SDS011;25589;51.552;13.424;2022-08-20T09:44:31;36.10;;;25.15;;
39918;SDS011;25589;51.552;13.424;2022-08-20T09:46:56;35.25;;;24.17;;
39918;SDS011;25589;51.552;13.424;2022-08-20T09:49:22;37.22;;;25.10;;
39918;SDS011;25589;51.552;13.424;2022-08-20T09:51:48;35.17;;;24.60;;
39918;SDS011;25589;51.552;13.424;2022-08-20T09:54:13;34.78;;;24.13;;
39918;SDS011;25589;51.552;13.424;2022-08-20T09:56:39;35.42;;;25.50;;
39918;SDS011;25589;51.552;13.424;2022-08-20T09:59:04;36.33;;;24.63;;
39918;SDS011;25589;51.552;13.424;2022-08-20T10:01:30;29.60;;;23.15;;
39918;SDS011;25589;51.552;13.424;2022-08-20T10:03:57;35.13;;;24.45;;
39918;SDS011;25589;51.552;13.424;2022-08-20T10:06:23;33.75;;;24.33;;
39918;SDS011;25589;51.552;13.424;2022-08-20T10:08:49;36.97;;;25.25;;
39918;SDS011;25589;51.552;13.424;2022-08-20T10:11:16;33.08;;;24.13;;
39918;SDS011;25589;51.552;13.424;2022-08-20T10:13:42;35.33;;;24.48;;
39918;SDS011;25589;51.552;13.424;2022-08-20T10:16:07;38.58;;;25.33;;
39918;SDS011;25589;51.552;13.424;2022-08-20T10:18:33;40.55;;;25.13;;
39918;SDS011;25589;51.552;13.424;2022-08-20T10:21:00;42.80;;;31.30;;
39918;SDS011;25589;51.552;13.424;2022-08-20T10:23:25;36.90;;;25.02;;
39918;SDS011;25589;51.552;13.424;2022-08-20T10:25:51;35.22;;;25.52;;
39918;SDS011;25589;51.552;13.424;2022-08-20T10:28:16;36.97;;;25.05;;
39918;SDS011;25589;51.552;13.424;2022-08-20T10:30:42;37.33;;;24.48;;
39918;SDS011;25589;51.552;13.424;2022-08-20T10:33:09;35.45;;;23.83;;
39918;SDS011;25589;51.552;13.424;2022-08-20T10:35:34;31.65;;;23.65;;
39918;SDS011;25589;51.552;13.424;2022-08-20T10:38:00;34.75;;;24.33;;
39918;SDS011;25589;51.552;13.424;2022-08-20T10:40:26;33.00;;;23.55;;
39918;SDS011;25589;51.552;13.424;2022-08-20T10:42:51;33.45;;;24.05;;
39918;SDS011;25589;51.552;13.424;2022-08-20T10:45:17;31.73;;;23.45;;
39918;SDS011;25589;51.552;13.424;2022-08-20T10:47:43;32.92;;;22.92;;
39918;SDS011;25589;51.552;13.424;2022-08-20T10:50:11;30.85;;;21.80;;
39918;SDS011;25589;51.552;13.424;2022-08-20T10:52:38;29.77;;;20.65;;
39918;SDS011;25589;51.552;13.424;2022-08-20T10:55:04;27.75;;;20.20;;
39918;SDS011;25589;51.552;13.424;2022-08-20T10:57:30;26.25;;;20.35;;
39918;SDS011;25589;51.552;13.424;2022-08-20T10:59:57;32.35;;;21.85;;
39918;SDS011;25589;51.552;13.424;2022-08-20T11:02:24;25.80;;;20.15;;
39918;SDS011;25589;51.552;13.424;2022-08-20T11:04:50;31.42;;;21.63;;
39918;SDS011;25589;51.552;13.424;2022-08-20T11:07:29;30.33;;;22.45;;
39918;SDS011;25589;51.552;13.424;2022-08-20T11:09:56;28.15;;;20.75;;
39918;SDS011;25589;51.552;13.424;2022-08-20T11:12:22;28.08;;;20.73;;
39918;SDS011;25589;51.552;13.424;2022-08-20T11:14:49;28.10;;;19.90;;
39918;SDS011;25589;51.552;13.424;2022-08-20T11:17:23;25.35;;;19.05;;
39918;SDS011;25589;51.552;13.424;2022-08-20T11:19:54;27.52;;;20.42;;
39918;SDS011;25589;51.552;13.424;2022-08-20T11:22:21;23.08;;;18.30;;
39918;SDS011;25589;51.552;13.424;2022-08-20T11:24:48;24.00;;;18.77;;
39918;SDS011;25589;51.552;13.424;2022-08-20T11:27:19;24.92;;;18.60;;
39918;SDS011;25589;51.552;13.424;2022-08-20T11:29:47;21.75;;;17.65;;
39918;SDS011;25589;51.552;13.424;2022-08-20T11:32:13;24.80;;;17.13;;
39918;SDS011;25589;51.552;13.424;2022-08-20T11:34:38;26.23;;;19.48;;
39918;SDS011;25589;51.552;13.424;2022-08-20T11:37:04;22.63;;;18.05;;
39918;SDS011;25589;51.552;13.424;2022-08-20T11:39:29;20.88;;;17.00;;
39918;SDS011;25589;51.552;13.424;2022-08-20T11:41:55;22.20;;;17.25;;
39918;SDS011;25589;51.552;13.424;2022-08-20T11:44:21;21.88;;;17.15;;
39918;SDS011;25589;51.552;13.424;2022-08-20T11:46:47;21.35;;;16.40;;
39918;SDS011;25589;51.552;13.424;2022-08-20T11:49:13;20.58;;;16.42;;
39918;SDS011;25589;51.552;13.424;2022-08-20T11:51:38;23.13;;;17.02;;
39918;SDS011;25589;51.552;13.424;2022-08-20T11:54:04;22.00;;;17.55;;
39918;SDS011;25589;51.552;13.424;2022-08-20T11:56:30;19.92;;;16.33;;
39918;SDS011;25589;51.552;13.424;2022-08-20T11:58:55;22.67;;;16.73;;
39918;SDS011;25589;51.552;13.424;2022-08-20T12:01:21;22.63;;;16.77;;
39918;SDS011;25589;51.552;13.424;2022-08-20T12:03:47;19.80;;;15.95;;
39918;SDS011;25589;51.552;13.424;2022-08-20T12:06:12;18.42;;;14.90;;
39918;SDS011;25589;51.552;13.424;2022-08-20T12:08:38;22.13;;;16.83;;
39918;SDS011;25589;51.552;13.424;2022-08-20T12:11:03;20.83;;;15.55;;
39918;SDS011;25589;51.552;13.424;2022-08-20T12:13:31;17.45;;;14.40;;
39918;SDS011;25589;51.552;13.424;2022-08-20T12:15:58;17.85;;;14.82;;
39918;SDS011;25589;51.552;13.424;2022-08-20T12:18:23;18.70;;;15.45;;
39918;SDS011;25589;51.552;13.424;2022-08-20T12:20:49;19.00;;;14.95;;
39918;SDS011;25589;51.552;13.424;2022-08-20T12:23:15;21.33;;;15.23;;
39918;SDS011;25589;51.552;13.424;2022-08-20T12:25:40;19.52;;;15.23;;
39918;SDS011;25589;51.552;13.424;2022-08-20T12:28:06;20.15;;;15.80;;
39918;SDS011;25589;51.552;13.424;2022-08-20T12:30:32;20.10;;;16.20;;
39918;SDS011;25589;51.552;13.424;2022-08-20T12:32:58;16.77;;;14.63;;
39918;SDS011;25589;51.552;13.424;2022-08-20T12:35:25;19.73;;;14.95;;
39918;SDS011;25589;51.552;13.424;2022-08-20T12:37:51;18.80;;;15.68;;
39918;SDS011;25589;51.552;13.424;2022-08-20T12:40:19;19.00;;;14.63;;
39918;SDS011;25589;51.552;13.424;2022-08-20T12:42:46;17.98;;;14.23;;
39918;SDS011;25589;51.552;13.424;2022-08-20T12:45:12;20.42;;;15.15;;
39918;SDS011;25589;51.552;13.424;2022-08-20T12:47:39;21.50;;;15.05;;
39918;SDS011;25589;51.552;13.424;2022-08-20T12:50:08;16.35;;;14.55;;
39918;SDS011;25589;51.552;13.424;2022-08-20T12:52:36;20.75;;;15.93;;
39918;SDS011;25589;51.552;13.424;2022-08-20T12:55:03;19.45;;;15.18;;
39918;SDS011;25589;51.552;13.424;2022-08-20T12:57:31;16.02;;;13.68;;
39918;SDS011;25589;51.552;13.424;2022-08-20T13:00:00;18.88;;;15.60;;
39918;SDS011;25589;51.552;13.424;2022-08-20T13:02:32;18.38;;;14.40;;
39918;SDS011;25589;51.552;13.424;2022-08-20T13:04:57;16.05;;;13.68;;
39918;SDS011;25589;51.552;13.424;2022-08-20T13:07:23;14.90;;;12.90;;
39918;SDS011;25589;51.552;13.424;2022-08-20T13:09:49;19.27;;;15.18;;
39918;SDS011;25589;51.552;13.424;2022-08-20T13:12:14;17.48;;;13.82;;
39918;SDS011;25589;51.552;13.424;2022-08-20T13:14:40;18.15;;;14.20;;
39918;SDS011;25589;51.552;13.424;2022-08-20T13:17:06;17.10;;;14.15;;
39918;SDS011;25589;51.552;13.424;2022-08-20T13:19:33;14.77;;;12.98;;
39918;SDS011;25589;51.552;13.424;2022-08-20T13:22:01;19.80;;;14.43;;
39918;SDS011;25589;51.552;13.424;2022-08-20T13:24:27;25.45;;;14.30;;
39918;SDS011;25589;51.552;13.424;2022-08-20T13:26:52;17.35;;;13.10;;
39918;SDS011;25589;51.552;13.424;2022-08-20T13:29:18;15.68;;;13.02;;
39918;SDS011;25589;51.552;13.424;2022-08-20T13:31:44;15.52;;;12.40;;
39918;SDS011;25589;51.552;13.424;2022-08-20T13:34:10;17.13;;;12.90;;
39918;SDS011;25589;51.552;13.424;2022-08-20T13:36:36;14.45;;;12.65;;
39918;SDS011;25589;51.552;13.424;2022-08-20T13:39:02;16.38;;;12.80;;
39918;SDS011;25589;51.552;13.424;2022-08-20T13:41:29;15.45;;;12.40;;
39918;SDS011;25589;51.552;13.424;2022-08-20T13:43:55;14.48;;;12.70;;
39918;SDS011;25589;51.552;13.424;2022-08-20T13:46:20;14.02;;;11.60;;
39918;SDS011;25589;51.552;13.424;2022-08-20T13:48:46;13.55;;;12.13;;
39918;SDS011;25589;51.552;13.424;2022-08-20T13:51:11;17.70;;;13.32;;
39918;SDS011;25589;51.552;13.424;2022-08-20T13:53:37;13.38;;;11.82;;
39918;SDS011;25589;51.552;13.424;2022-08-20T13:56:03;13.15;;;11.48;;
39918;SDS011;25589;51.552;13.424;2022-08-20T13:58:29;13.43;;;11.48;;
39918;SDS011;25589;51.552;13.424;2022-08-20T14:00:54;12.68;;;10.43;;
39918;SDS011;25589;51.552;13.424;2022-08-20T14:03:20;12.13;;;9.50;;
39918;SDS011;25589;51.552;13.424;2022-08-20T14:05:45;14.07;;;10.02;;
39918;SDS011;25589;51.552;13.424;2022-08-20T14:08:13;12.65;;;10.25;;
39918;SDS011;25589;51.552;13.424;2022-08-20T14:10:41;11.13;;;9.57;;
39918;SDS011;25589;51.552;13.424;2022-08-20T14:13:07;12.05;;;9.75;;
39918;SDS011;25589;51.552;13.424;2022-08-20T14:15:35;14.38;;;9.82;;
39918;SDS011;25589;51.552;13.424;2022-08-20T14:18:02;11.45;;;9.45;;
39918;SDS011;25589;51.552;13.424;2022-08-20T14:20:31;14.50;;;10.30;;